Аэропорт: Нижневартовск. Нижневартовск

ICAO: USNN

METAR:
2019/03/26 13:00
USNN 261300Z 16008MPS CAVOK 04/M05 Q1016 R21/0///65 NOSIG RMK QFE757
METAR:
2019/03/26 12:21
TAF TAF USNN 261100Z 2612/2712 16008G17MPS 9999 SCT015 BKN050 
      BECMG 2620/2621 3100 -SHSN BKN011 BKN020CB 
     FM270600 24003MPS 9999 BKN015 SCT020CB